createdAt,value
2019-03-03T00:00:06.503Z,95010.47
2019-03-03T00:02:33.141Z,95007.98
2019-03-03T00:04:59.821Z,95019.61
2019-03-03T00:07:26.460Z,95015.95
2019-03-03T00:09:53.153Z,95012.64
2019-03-03T00:12:19.826Z,95012.89
2019-03-03T00:14:46.523Z,95020.89
2019-03-03T00:17:13.171Z,95022.53
2019-03-03T00:19:39.859Z,95019.86
2019-03-03T00:22:06.465Z,95019.35
2019-03-03T00:24:33.149Z,95023.52
2019-03-03T00:26:59.792Z,95033.84
2019-03-03T00:29:26.474Z,95033.09
2019-03-03T00:31:53.148Z,95028.86
2019-03-03T00:34:19.790Z,95033.27
2019-03-03T00:36:46.460Z,95032.41
2019-03-03T00:39:13.110Z,95031.75
2019-03-03T00:41:39.766Z,95040.35
2019-03-03T00:44:06.421Z,95034.25
2019-03-03T00:46:33.066Z,95034.68
2019-03-03T00:48:59.734Z,95033.52
2019-03-03T00:51:26.365Z,95034.05
2019-03-03T00:53:53.010Z,95031.16
2019-03-03T00:56:19.649Z,95030.05
2019-03-03T00:58:46.298Z,95035.84
2019-03-03T01:01:12.944Z,95033.72
2019-03-03T01:03:39.587Z,95030.92
2019-03-03T01:06:06.268Z,95036.74
2019-03-03T01:08:32.909Z,95038.18
2019-03-03T01:10:59.599Z,95040.52
2019-03-03T01:13:26.329Z,95041.53
2019-03-03T01:15:53.013Z,95044.09
2019-03-03T01:18:19.658Z,95040.05
2019-03-03T01:20:46.308Z,95040.92
2019-03-03T01:23:12.948Z,95032.50
2019-03-03T01:25:39.631Z,95032.63
2019-03-03T01:28:06.277Z,95029.86
2019-03-03T01:30:32.966Z,95028.45
2019-03-03T01:32:59.599Z,95026.36
2019-03-03T01:35:26.277Z,95029.00
2019-03-03T01:37:52.912Z,95033.87
2019-03-03T01:40:19.619Z,95028.12
2019-03-03T01:42:46.345Z,95029.98
2019-03-03T01:45:12.988Z,95034.55
2019-03-03T01:47:39.677Z,95033.84
2019-03-03T01:50:06.321Z,95041.77
2019-03-03T01:52:32.973Z,95034.42
2019-03-03T01:54:59.657Z,95039.50
2019-03-03T01:57:26.336Z,95038.39
2019-03-03T01:59:52.985Z,95036.83
2019-03-03T02:02:19.727Z,95037.64
2019-03-03T02:04:46.402Z,95041.39
2019-03-03T02:07:13.048Z,95048.83
2019-03-03T02:09:42.533Z,95048.09
2019-03-03T02:12:09.176Z,95050.23
2019-03-03T02:14:35.834Z,95046.70
2019-03-03T02:17:02.472Z,95048.09
2019-03-03T02:19:29.126Z,95047.23
2019-03-03T02:21:55.765Z,95051.75
2019-03-03T02:24:22.412Z,95047.84
2019-03-03T02:26:49.143Z,95041.84
2019-03-03T02:29:15.784Z,95045.98
2019-03-03T02:31:42.417Z,95045.22
2019-03-03T02:34:09.097Z,95047.74
2019-03-03T02:36:35.743Z,95044.23
2019-03-03T02:39:02.382Z,95050.80
2019-03-03T02:41:29.029Z,95053.80
2019-03-03T02:43:55.674Z,95053.30
2019-03-03T02:46:22.403Z,95062.02
2019-03-03T02:48:49.046Z,95064.11
2019-03-03T02:51:15.691Z,95064.55
2019-03-03T02:53:43.651Z,95068.53
2019-03-03T02:56:09.012Z,95068.55
2019-03-03T02:58:35.646Z,95068.43
2019-03-03T03:01:02.306Z,95064.80
2019-03-03T03:03:28.942Z,95067.96
2019-03-03T03:05:55.601Z,95072.34
2019-03-03T03:08:22.256Z,95068.23
2019-03-03T03:10:48.940Z,95069.83
2019-03-03T03:13:15.596Z,95070.34
2019-03-03T03:15:42.234Z,95075.50
2019-03-03T03:18:08.921Z,95069.11
2019-03-03T03:20:35.558Z,95069.48
2019-03-03T03:23:02.282Z,95069.87
2019-03-03T03:25:28.919Z,95070.47
2019-03-03T03:27:55.560Z,95074.27
2019-03-03T03:30:22.247Z,95073.28
2019-03-03T03:32:48.948Z,95078.06
2019-03-03T03:35:15.588Z,95076.03
2019-03-03T03:37:42.246Z,95068.69
2019-03-03T03:40:08.886Z,95071.88
2019-03-03T03:42:35.561Z,95065.12
2019-03-03T03:45:02.208Z,95068.38
2019-03-03T03:47:28.866Z,95070.66
2019-03-03T03:49:55.497Z,95069.52
2019-03-03T03:52:22.234Z,95072.02
2019-03-03T03:54:48.941Z,95070.60
2019-03-03T03:57:15.635Z,95071.87
2019-03-03T03:59:42.316Z,95071.88
2019-03-03T04:02:08.962Z,95068.48
2019-03-03T04:04:35.614Z,95069.26
2019-03-03T04:07:03.789Z,95064.45
2019-03-03T04:09:32.121Z,95068.36
2019-03-03T04:11:58.742Z,95071.91
2019-03-03T04:14:25.386Z,95074.26
2019-03-03T04:16:52.025Z,95071.28
2019-03-03T04:19:18.713Z,95070.13
2019-03-03T04:21:45.353Z,95077.80
2019-03-03T04:24:12.051Z,95080.31
2019-03-03T04:26:38.722Z,95075.56
2019-03-03T04:29:05.371Z,95077.94
2019-03-03T04:31:32.066Z,95079.08
2019-03-03T04:33:58.729Z,95092.03
2019-03-03T04:36:25.431Z,95082.84
2019-03-03T04:38:52.061Z,95093.04
2019-03-03T04:41:18.742Z,95090.65
2019-03-03T04:43:45.449Z,95085.98
2019-03-03T04:46:12.091Z,95082.84
2019-03-03T04:48:38.732Z,95083.34
2019-03-03T04:51:05.420Z,95084.63
2019-03-03T04:53:32.066Z,95087.02
2019-03-03T04:55:58.717Z,95084.73
2019-03-03T04:58:25.356Z,95088.50
2019-03-03T05:00:52.011Z,95081.22
2019-03-03T05:03:18.753Z,95078.45
2019-03-03T05:05:45.398Z,95073.17
2019-03-03T05:08:12.059Z,95081.71
2019-03-03T05:10:38.690Z,95085.39
2019-03-03T05:13:05.369Z,95079.34
2019-03-03T05:15:32.022Z,95092.56
2019-03-03T05:17:58.776Z,95103.75
2019-03-03T05:20:25.416Z,95100.95
2019-03-03T05:22:52.070Z,95113.67
2019-03-03T05:25:18.704Z,95107.27
2019-03-03T05:27:45.402Z,95114.30
2019-03-03T05:30:12.032Z,95111.17
2019-03-03T05:32:38.679Z,95111.30
2019-03-03T05:35:05.315Z,95123.98
2019-03-03T05:37:31.988Z,95126.02
2019-03-03T05:39:58.624Z,95128.26
2019-03-03T05:42:25.307Z,95119.22
2019-03-03T05:44:51.953Z,95127.91
2019-03-03T05:47:19.794Z,95135.16
2019-03-03T05:49:45.289Z,95132.66
2019-03-03T05:52:11.936Z,95135.43
2019-03-03T05:54:38.612Z,95133.03
2019-03-03T05:57:05.293Z,95135.70
2019-03-03T05:59:31.905Z,95143.75
2019-03-03T06:01:58.592Z,95140.20
2019-03-03T06:04:25.236Z,95148.64
2019-03-03T06:06:51.869Z,95150.00
2019-03-03T06:09:18.521Z,95141.71
2019-03-03T06:11:45.216Z,95149.14
2019-03-03T06:14:11.921Z,95150.53
2019-03-03T06:16:38.572Z,95156.06
2019-03-03T06:19:05.257Z,95159.30
2019-03-03T06:21:31.894Z,95154.41
2019-03-03T06:23:58.541Z,95152.14
2019-03-03T06:26:25.260Z,95148.52
2019-03-03T06:28:51.909Z,95150.53
2019-03-03T06:31:18.550Z,95156.67
2019-03-03T06:33:45.251Z,95151.91
2019-03-03T06:36:11.889Z,95154.53
2019-03-03T06:38:38.535Z,95157.97
2019-03-03T06:41:05.218Z,95155.81
2019-03-03T06:43:31.864Z,95161.97
2019-03-03T06:45:58.499Z,95155.67
2019-03-03T06:48:25.194Z,95167.36
2019-03-03T06:50:52.977Z,95164.97
2019-03-03T06:53:18.566Z,95174.28
2019-03-03T06:55:45.215Z,95173.27
2019-03-03T06:58:11.854Z,95178.80
2019-03-03T07:00:38.558Z,95174.66
2019-03-03T07:03:05.165Z,95174.66
2019-03-03T07:05:31.803Z,95184.20
2019-03-03T07:07:58.440Z,95177.42
2019-03-03T07:10:25.143Z,95180.56
2019-03-03T07:12:51.802Z,95183.11
2019-03-03T07:15:18.435Z,95173.64
2019-03-03T07:17:45.090Z,95178.42
2019-03-03T07:20:11.739Z,95168.73
2019-03-03T07:22:38.388Z,95181.72
2019-03-03T07:25:05.036Z,95183.11
2019-03-03T07:27:31.678Z,95182.23
2019-03-03T07:29:58.327Z,95181.84
2019-03-03T07:32:25.101Z,95188.76
2019-03-03T07:34:51.739Z,95189.14
2019-03-03T07:37:18.375Z,95186.02
2019-03-03T07:39:45.021Z,95191.42
2019-03-03T07:42:11.662Z,95187.27
2019-03-03T07:44:38.364Z,95191.67
2019-03-03T07:47:05.001Z,95193.05
2019-03-03T07:49:31.661Z,95195.56
2019-03-03T07:51:58.301Z,95193.94
2019-03-03T07:54:24.981Z,95196.95
2019-03-03T07:56:51.622Z,95196.32
2019-03-03T07:59:18.329Z,95198.84
2019-03-03T08:01:44.979Z,95198.83
2019-03-03T08:04:11.616Z,95203.48
2019-03-03T08:06:38.308Z,95198.83
2019-03-03T08:09:04.975Z,95203.75
2019-03-03T08:11:31.626Z,95214.92
2019-03-03T08:13:58.263Z,95208.03
2019-03-03T08:16:24.920Z,95203.75
2019-03-03T08:18:51.572Z,95206.00
2019-03-03T08:21:18.269Z,95212.27
2019-03-03T08:23:44.915Z,95207.00
2019-03-03T08:26:11.558Z,95209.77
2019-03-03T08:28:39.584Z,95207.13
2019-03-03T08:31:04.883Z,95204.58
2019-03-03T08:33:31.516Z,95210.75
2019-03-03T08:35:58.156Z,95212.90
2019-03-03T08:38:24.851Z,95215.30
2019-03-03T08:40:51.492Z,95215.02
2019-03-03T08:43:18.171Z,95209.99
2019-03-03T08:45:44.813Z,95212.75
2019-03-03T08:48:11.448Z,95212.39
2019-03-03T08:50:41.015Z,95213.77
2019-03-03T08:53:07.668Z,95209.24
2019-03-03T08:55:34.366Z,95212.11
2019-03-03T08:58:01.045Z,95215.27
2019-03-03T09:00:27.694Z,95216.25
2019-03-03T09:02:54.334Z,95214.64
2019-03-03T09:05:21.012Z,95220.30
2019-03-03T09:07:47.698Z,95214.00
2019-03-03T09:10:14.335Z,95216.13
2019-03-03T09:12:40.988Z,95218.42
2019-03-03T09:15:07.661Z,95220.92
2019-03-03T09:17:34.353Z,95224.06
2019-03-03T09:20:01.007Z,95227.59
2019-03-03T09:22:27.701Z,95224.18
2019-03-03T09:24:54.349Z,95221.29
2019-03-03T09:27:21.032Z,95217.64
2019-03-03T09:29:47.717Z,95227.59
2019-03-03T09:32:14.355Z,95223.20
2019-03-03T09:34:40.993Z,95225.31
2019-03-03T09:37:07.654Z,95224.56
2019-03-03T09:39:34.338Z,95224.33
2019-03-03T09:42:00.980Z,95222.44
2019-03-03T09:44:27.630Z,95224.81
2019-03-03T09:46:54.272Z,95226.20
2019-03-03T09:49:20.970Z,95224.17
2019-03-03T09:51:47.605Z,95231.49
2019-03-03T09:54:14.242Z,95223.06
2019-03-03T09:56:40.941Z,95223.06
2019-03-03T09:59:07.582Z,95228.56
2019-03-03T10:01:34.235Z,95228.19
2019-03-03T10:04:00.885Z,95232.48
2019-03-03T10:06:27.573Z,95229.83
2019-03-03T10:08:54.224Z,95225.06
2019-03-03T10:11:20.865Z,95225.80
2019-03-03T10:13:47.515Z,95223.04
2019-03-03T10:16:14.285Z,95225.58
2019-03-03T10:18:40.928Z,95216.34
2019-03-03T10:21:07.562Z,95220.88
2019-03-03T10:23:34.221Z,95214.59
2019-03-03T10:26:00.918Z,95212.34
2019-03-03T10:28:27.566Z,95212.70
2019-03-03T10:30:54.196Z,95219.50
2019-03-03T10:33:20.894Z,95213.84
2019-03-03T10:35:47.533Z,95201.75
2019-03-03T10:38:14.225Z,95206.91
2019-03-03T10:40:40.871Z,95201.73
2019-03-03T10:43:07.557Z,95200.34
2019-03-03T10:45:34.197Z,95201.61
2019-03-03T10:48:00.882Z,95199.09
2019-03-03T10:50:27.674Z,95193.28
2019-03-03T10:52:54.311Z,95190.89
2019-03-03T10:55:21.058Z,95196.30
2019-03-03T10:57:47.700Z,95199.21
2019-03-03T11:00:14.379Z,95196.34
2019-03-03T11:02:41.048Z,95196.59
2019-03-03T11:05:07.696Z,95193.83
2019-03-03T11:07:34.334Z,95191.80
2019-03-03T11:10:01.031Z,95190.87
2019-03-03T11:12:27.837Z,95189.13
2019-03-03T11:14:54.488Z,95192.14
2019-03-03T11:17:21.126Z,95189.89
2019-03-03T11:19:47.781Z,95188.77
2019-03-03T11:22:14.472Z,95188.12
2019-03-03T11:24:41.109Z,95190.53
2019-03-03T11:27:07.824Z,95190.66
2019-03-03T11:29:34.461Z,95196.32
2019-03-03T11:32:01.107Z,95189.39
2019-03-03T11:34:29.724Z,95192.02
2019-03-03T11:36:54.441Z,95184.23
2019-03-03T11:39:21.135Z,95187.77
2019-03-03T11:41:47.764Z,95189.66
2019-03-03T11:44:14.416Z,95195.77
2019-03-03T11:46:41.051Z,95190.22
2019-03-03T11:49:07.740Z,95194.27
2019-03-03T11:51:34.379Z,95191.60
2019-03-03T11:54:01.037Z,95192.75
2019-03-03T11:56:27.736Z,95182.30
2019-03-03T11:58:54.381Z,95182.42
2019-03-03T12:01:21.075Z,95184.80
2019-03-03T12:03:47.676Z,95183.55
2019-03-03T12:06:14.328Z,95187.45
2019-03-03T12:08:40.973Z,95186.56
2019-03-03T12:11:07.621Z,95177.59
2019-03-03T12:13:34.281Z,95185.03
2019-03-03T12:16:00.984Z,95180.73
2019-03-03T12:18:27.621Z,95176.93
2019-03-03T12:20:54.260Z,95178.34
2019-03-03T12:23:20.915Z,95176.71
2019-03-03T12:25:47.555Z,95177.06
2019-03-03T12:28:14.204Z,95176.56
2019-03-03T12:30:40.870Z,95174.44
2019-03-03T12:33:07.555Z,95177.45
2019-03-03T12:35:34.204Z,95177.47
2019-03-03T12:38:00.848Z,95177.57
2019-03-03T12:40:27.515Z,95173.91
2019-03-03T12:42:54.153Z,95175.81
2019-03-03T12:45:20.792Z,95172.94
2019-03-03T12:47:47.443Z,95171.26
2019-03-03T12:50:14.115Z,95173.90
2019-03-03T12:52:40.766Z,95171.39
2019-03-03T12:55:07.401Z,95161.45
2019-03-03T12:57:34.048Z,95172.27
2019-03-03T13:00:00.771Z,95167.86
2019-03-03T13:02:27.517Z,95170.50
2019-03-03T13:04:54.204Z,95170.64
2019-03-03T13:07:20.891Z,95160.83
2019-03-03T13:09:47.524Z,95164.88
2019-03-03T13:12:14.252Z,95163.84
2019-03-03T13:14:40.901Z,95166.85
2019-03-03T13:17:07.606Z,95164.48
2019-03-03T13:19:34.293Z,95162.59
2019-03-03T13:22:00.936Z,95161.80
2019-03-03T13:24:27.616Z,95164.72
2019-03-03T13:26:54.262Z,95158.02
2019-03-03T13:29:20.901Z,95157.15
2019-03-03T13:31:47.565Z,95149.95
2019-03-03T13:34:14.208Z,95148.95
2019-03-03T13:36:40.853Z,95146.69
2019-03-03T13:39:07.496Z,95144.67
2019-03-03T13:41:34.185Z,95137.35
2019-03-03T13:44:00.864Z,95137.50
2019-03-03T13:46:27.504Z,95140.88
2019-03-03T13:48:54.156Z,95140.25
2019-03-03T13:51:20.806Z,95142.12
2019-03-03T13:53:48.584Z,95140.20
2019-03-03T13:56:15.264Z,95137.33
2019-03-03T13:58:41.906Z,95139.70
2019-03-03T14:01:08.550Z,95138.07
2019-03-03T14:03:35.281Z,95139.97
2019-03-03T14:06:01.918Z,95144.63
2019-03-03T14:08:28.573Z,95140.59
2019-03-03T14:10:55.208Z,95136.80
2019-03-03T14:13:21.846Z,95137.42
2019-03-03T14:15:48.541Z,95135.69
2019-03-03T14:18:15.182Z,95135.78
2019-03-03T14:20:41.868Z,95133.75
2019-03-03T14:23:08.518Z,95133.77
2019-03-03T14:25:35.160Z,95132.52
2019-03-03T14:28:02.873Z,95130.50
2019-03-03T14:30:28.494Z,95132.11
2019-03-03T14:32:55.133Z,95130.10
2019-03-03T14:35:21.795Z,95131.27
2019-03-03T14:37:48.522Z,95130.75
2019-03-03T14:40:15.172Z,95126.23
2019-03-03T14:42:43.901Z,95123.02
2019-03-03T14:45:08.466Z,95125.20
2019-03-03T14:47:35.163Z,95123.94
2019-03-03T14:50:01.805Z,95124.32
2019-03-03T14:52:28.551Z,95122.56
2019-03-03T14:54:57.816Z,95126.30
2019-03-03T14:57:24.455Z,95124.95
2019-03-03T14:59:51.174Z,95122.08
2019-03-03T15:02:17.828Z,95122.45
2019-03-03T15:04:44.489Z,95121.44
2019-03-03T15:07:11.181Z,95121.71
2019-03-03T15:09:41.009Z,95121.32
2019-03-03T15:12:07.694Z,95120.81
2019-03-03T15:14:34.343Z,95124.85
2019-03-03T15:17:01.034Z,95118.82
2019-03-03T15:19:27.681Z,95113.52
2019-03-03T15:21:54.334Z,95118.44
2019-03-03T15:24:21.011Z,95122.33
2019-03-03T15:26:47.704Z,95119.42
2019-03-03T15:29:14.345Z,95122.73
2019-03-03T15:31:41.015Z,95118.10
2019-03-03T15:34:09.758Z,95119.20
2019-03-03T15:36:34.351Z,95122.55
2019-03-03T15:39:01.000Z,95120.61
2019-03-03T15:41:27.640Z,95117.44
2019-03-03T15:43:54.279Z,95126.88
2019-03-03T15:46:20.922Z,95123.12
2019-03-03T15:48:47.804Z,95116.72
2019-03-03T15:51:14.438Z,95127.91
2019-03-03T15:53:41.075Z,95122.73
2019-03-03T15:56:07.738Z,95121.13
2019-03-03T15:58:34.510Z,95113.29
2019-03-03T16:01:01.150Z,95117.09
2019-03-03T16:03:27.794Z,95116.20
2019-03-03T16:05:54.437Z,95119.38
2019-03-03T16:08:21.097Z,95120.23
2019-03-03T16:10:47.780Z,95127.56
2019-03-03T16:13:14.533Z,95127.79
2019-03-03T16:15:41.181Z,95136.48
2019-03-03T16:18:07.834Z,95132.22
2019-03-03T16:20:34.489Z,95140.77
2019-03-03T16:23:01.167Z,95133.97
2019-03-03T16:25:27.804Z,95136.10
2019-03-03T16:27:54.484Z,95135.11
2019-03-03T16:30:21.124Z,95125.15
2019-03-03T16:32:47.814Z,95125.30
2019-03-03T16:35:14.490Z,95116.37
2019-03-03T16:37:41.136Z,95119.89
2019-03-03T16:40:07.857Z,95124.14
2019-03-03T16:42:34.499Z,95118.98
2019-03-03T16:45:01.186Z,95121.79
2019-03-03T16:47:27.859Z,95124.05
2019-03-03T16:49:54.511Z,95124.54
2019-03-03T16:52:21.184Z,95129.70
2019-03-03T16:54:47.827Z,95128.20
2019-03-03T16:57:14.508Z,95129.20
2019-03-03T16:59:41.215Z,95126.32
2019-03-03T17:02:07.868Z,95127.59
2019-03-03T17:04:34.867Z,95128.10
2019-03-03T17:07:01.192Z,95128.73
2019-03-03T17:09:27.828Z,95129.97
2019-03-03T17:11:54.523Z,95133.61
2019-03-03T17:14:21.178Z,95132.36
2019-03-03T17:16:47.862Z,95134.75
2019-03-03T17:19:14.500Z,95134.14
2019-03-03T17:21:41.185Z,95137.04
2019-03-03T17:24:07.829Z,95142.09
2019-03-03T17:26:34.480Z,95140.92
2019-03-03T17:29:01.131Z,95140.08
2019-03-03T17:31:27.820Z,95145.62
2019-03-03T17:33:54.508Z,95142.18
2019-03-03T17:36:21.149Z,95143.20
2019-03-03T17:38:47.801Z,95147.61
2019-03-03T17:41:14.438Z,95144.46
2019-03-03T17:43:41.122Z,95137.94
2019-03-03T17:46:07.759Z,95139.68
2019-03-03T17:48:34.439Z,95142.30
2019-03-03T17:51:01.081Z,95141.18
2019-03-03T17:53:27.720Z,95138.16
2019-03-03T17:55:54.364Z,95134.41
2019-03-03T17:58:21.051Z,95137.17
2019-03-03T18:00:47.693Z,95137.41
2019-03-03T18:03:14.334Z,95132.11
2019-03-03T18:05:41.014Z,95140.69
2019-03-03T18:08:07.728Z,95138.31
2019-03-03T18:10:34.380Z,95142.80
2019-03-03T18:13:01.030Z,95147.11
2019-03-03T18:15:27.678Z,95142.70
2019-03-03T18:17:54.401Z,95144.22
2019-03-03T18:20:21.288Z,95144.23
2019-03-03T18:22:47.971Z,95140.70
2019-03-03T18:25:14.601Z,95144.12
2019-03-03T18:27:41.396Z,95137.56
2019-03-03T18:30:08.036Z,95133.04
2019-03-03T18:32:34.719Z,95129.63
2019-03-03T18:35:01.363Z,95134.39
2019-03-03T18:37:28.019Z,95134.27
2019-03-03T18:39:54.707Z,95137.94
2019-03-03T18:42:21.413Z,95133.31
2019-03-03T18:44:48.072Z,95134.55
2019-03-03T18:47:14.722Z,95127.97
2019-03-03T18:49:41.387Z,95132.64
2019-03-03T18:52:08.087Z,95129.36
2019-03-03T18:54:34.728Z,95127.21
2019-03-03T18:57:01.367Z,95131.02
2019-03-03T18:59:28.014Z,95131.66
2019-03-03T19:01:54.667Z,95129.16
2019-03-03T19:04:21.358Z,95128.02
2019-03-03T19:06:48.000Z,95135.94
2019-03-03T19:09:14.641Z,95132.80
2019-03-03T19:11:41.326Z,95132.66
2019-03-03T19:14:07.965Z,95130.05
2019-03-03T19:16:34.654Z,95130.77
2019-03-03T19:19:01.388Z,95132.05
2019-03-03T19:21:28.024Z,95132.45
2019-03-03T19:23:54.671Z,95132.69
2019-03-03T19:26:21.335Z,95134.97
2019-03-03T19:28:47.972Z,95133.20
2019-03-03T19:31:14.710Z,95131.16
2019-03-03T19:33:41.361Z,95134.20
2019-03-03T19:36:08.011Z,95129.95
2019-03-03T19:38:34.700Z,95128.16
2019-03-03T19:41:01.338Z,95123.51
2019-03-03T19:43:28.230Z,95136.02
2019-03-03T19:45:54.671Z,95134.16
2019-03-03T19:48:21.315Z,95132.91
2019-03-03T19:50:48.001Z,95133.77
2019-03-03T19:53:14.647Z,95134.78
2019-03-03T19:55:41.295Z,95139.70
2019-03-03T19:58:07.927Z,95134.89
2019-03-03T20:00:36.778Z,95134.66
2019-03-03T20:03:01.264Z,95131.86
2019-03-03T20:05:29.205Z,95135.16
2019-03-03T20:07:54.629Z,95132.50
2019-03-03T20:10:21.286Z,95128.84
2019-03-03T20:12:47.924Z,95137.41
2019-03-03T20:15:14.663Z,95133.88
2019-03-03T20:17:41.310Z,95125.33
2019-03-03T20:20:07.946Z,95128.59
2019-03-03T20:22:34.658Z,95133.25
2019-03-03T20:25:01.296Z,95130.48
2019-03-03T20:27:27.938Z,95126.84
2019-03-03T20:29:54.590Z,95129.38
2019-03-03T20:32:21.395Z,95128.58
2019-03-03T20:34:48.031Z,95123.44
2019-03-03T20:37:14.676Z,95124.17
2019-03-03T20:39:41.333Z,95116.02
2019-03-03T20:42:07.979Z,95115.14
2019-03-03T20:44:34.669Z,95115.27
2019-03-03T20:47:01.343Z,95126.83
2019-03-03T20:49:27.979Z,95128.21
2019-03-03T20:51:54.634Z,95119.41
2019-03-03T20:54:21.279Z,95128.11
2019-03-03T20:56:47.963Z,95133.63
2019-03-03T20:59:14.609Z,95130.02
2019-03-03T21:01:41.263Z,95132.13
2019-03-03T21:04:07.925Z,95130.11
2019-03-03T21:06:34.568Z,95124.22
2019-03-03T21:09:01.258Z,95127.61
2019-03-03T21:11:27.895Z,95123.98
2019-03-03T21:13:54.589Z,95123.19
2019-03-03T21:16:21.232Z,95129.38
2019-03-03T21:18:47.874Z,95126.00
2019-03-03T21:21:14.570Z,95126.75
2019-03-03T21:23:41.217Z,95124.34
2019-03-03T21:26:07.924Z,95111.24
2019-03-03T21:28:34.569Z,95107.37
2019-03-03T21:31:01.223Z,95109.51
2019-03-03T21:33:27.906Z,95108.63
2019-03-03T21:35:54.544Z,95109.02
2019-03-03T21:38:21.287Z,95104.98
2019-03-03T21:40:47.925Z,95112.16
2019-03-03T21:43:14.611Z,95115.83
2019-03-03T21:45:41.246Z,95117.58
2019-03-03T21:48:07.897Z,95112.28
2019-03-03T21:50:34.532Z,95116.81
2019-03-03T21:53:01.185Z,95107.50
2019-03-03T21:55:27.882Z,95110.14
2019-03-03T21:57:54.526Z,95102.09
2019-03-03T22:00:21.178Z,95100.58
2019-03-03T22:02:47.812Z,95090.16
2019-03-03T22:05:14.459Z,95092.30
2019-03-03T22:07:41.142Z,95094.03
2019-03-03T22:10:07.788Z,95090.78
2019-03-03T22:12:34.438Z,95091.17
2019-03-03T22:15:01.085Z,95104.39
2019-03-03T22:17:27.763Z,95102.11
2019-03-03T22:19:54.408Z,95099.23
2019-03-03T22:22:21.099Z,95095.56
2019-03-03T22:24:47.741Z,95097.47
2019-03-03T22:27:14.380Z,95095.80
2019-03-03T22:29:41.074Z,95099.72
2019-03-03T22:32:07.725Z,95100.34
2019-03-03T22:34:34.452Z,95094.19
2019-03-03T22:37:01.102Z,95097.17
2019-03-03T22:39:27.747Z,95089.40
2019-03-03T22:41:54.431Z,95092.52
2019-03-03T22:44:21.092Z,95082.12
2019-03-03T22:46:47.738Z,95083.74
2019-03-03T22:49:14.390Z,95083.86
2019-03-03T22:51:41.027Z,95086.99
2019-03-03T22:54:07.676Z,95083.09
2019-03-03T22:56:34.305Z,95081.60
2019-03-03T22:59:00.949Z,95093.80
2019-03-03T23:01:27.588Z,95093.54
2019-03-03T23:03:54.318Z,95095.05
2019-03-03T23:06:20.951Z,95090.41
2019-03-03T23:08:47.637Z,95086.38
2019-03-03T23:11:14.310Z,95095.71
2019-03-03T23:13:40.960Z,95090.79
2019-03-03T23:16:07.619Z,95090.52
2019-03-03T23:18:34.314Z,95092.05
2019-03-03T23:21:00.948Z,95094.58
2019-03-03T23:23:27.585Z,95096.44
2019-03-03T23:25:54.270Z,95093.30
2019-03-03T23:28:20.909Z,95101.24
2019-03-03T23:30:47.626Z,95098.84
2019-03-03T23:33:14.320Z,95092.94
2019-03-03T23:35:40.962Z,95097.20
2019-03-03T23:38:07.602Z,95091.81
2019-03-03T23:40:34.313Z,95097.59
2019-03-03T23:43:00.960Z,95094.45
2019-03-03T23:45:27.598Z,95087.53
2019-03-03T23:47:54.255Z,95093.30
2019-03-03T23:50:20.904Z,95092.17
2019-03-03T23:52:47.589Z,95091.20
2019-03-03T23:55:14.228Z,95088.55
2019-03-03T23:57:40.874Z,95085.89
